Time;durP1;ratioP1;P1;durP2;ratioP2;P2;SDS_P1;SDS_P2;PMS_P1;PMS_P2;Temp;Humidity;BMP_temperature;BMP_pressure;BME280_temperature;BME280_humidity;BME280_pressure;Samples;Min_cycle;Max_cycle;Signal;HPM_P1;HPM_P2
2021/10/26 00:00:19;;;;;;;10.73;7.85;;;;;;;7.77;56.43;100681.88;4871407;28;97265;-85
2021/10/26 00:02:44;;;;;;;15.68;8.00;;;;;;;7.83;56.60;100689.63;4854303;28;101863;-86
2021/10/26 00:05:10;;;;;;;15.30;8.93;;;;;;;7.78;57.16;100682.75;4882917;28;97977;-87
2021/10/26 00:07:36;;;;;;;13.85;8.70;;;;;;;7.77;56.98;100687.09;4851832;28;96933;-86
2021/10/26 00:10:04;;;;;;;12.75;8.20;;;;;;;7.75;56.88;100680.19;4859927;28;97200;-86
2021/10/26 00:12:30;;;;;;;19.73;8.70;;;;;;;8.15;55.21;100672.50;4852263;28;101753;-87
2021/10/26 00:14:55;;;;;;;14.98;8.82;;;;;;;8.25;54.89;100694.09;4864241;28;98124;-87
2021/10/26 00:17:22;;;;;;;13.32;8.43;;;;;;;8.06;55.70;100686.59;4855474;28;96802;-87
2021/10/26 00:19:48;;;;;;;14.43;8.52;;;;;;;7.99;56.28;100702.41;4896056;28;96854;-87
2021/10/26 00:22:13;;;;;;;13.90;8.88;;;;;;;8.16;55.65;100695.13;4844477;28;101646;-85
2021/10/26 00:24:39;;;;;;;15.18;8.68;;;;;;;8.15;55.21;100694.28;4861298;28;100850;-87
2021/10/26 00:27:05;;;;;;;11.85;9.10;;;;;;;8.34;54.62;100694.78;4851766;28;96726;-83
2021/10/26 00:29:30;;;;;;;11.93;9.02;;;;;;;8.30;54.89;100692.28;4847113;28;96944;-86
2021/10/26 00:31:56;;;;;;;13.43;8.07;;;;;;;8.29;54.65;100690.53;4860498;28;100591;-87
2021/10/26 00:34:21;;;;;;;12.40;8.23;;;;;;;8.36;54.89;100692.16;4854687;28;101551;-86
2021/10/26 00:36:47;;;;;;;14.18;8.18;;;;;;;8.32;55.35;100695.69;4848917;28;96880;-87
2021/10/26 00:39:13;;;;;;;13.50;8.93;;;;;;;7.98;56.42;100692.84;4843229;28;96900;-86
2021/10/26 00:41:39;;;;;;;11.68;7.72;;;;;;;7.87;56.67;100683.44;4855569;28;100199;-86
2021/10/26 00:44:05;;;;;;;14.70;8.40;;;;;;;7.87;56.51;100691.28;4847813;28;101486;-82
2021/10/26 00:46:33;;;;;;;17.85;8.60;;;;;;;7.92;56.38;100679.00;4844618;29;96776;-87
2021/10/26 00:49:00;;;;;;;15.82;8.77;;;;;;;7.99;56.43;100687.59;4865786;28;97086;-87
2021/10/26 00:51:28;;;;;;;14.50;9.13;;;;;;;7.89;57.21;100691.25;4851317;28;102118;-87
2021/10/26 00:53:56;;;;;;;15.45;8.48;;;;;;;7.79;57.42;100689.69;4860797;28;101769;-86
2021/10/26 00:56:23;;;;;;;13.77;8.48;;;;;;;7.75;57.83;100678.41;4871989;28;97104;-86
2021/10/26 00:58:50;;;;;;;15.38;9.32;;;;;;;7.69;57.98;100686.38;4846075;28;96766;-87
2021/10/26 01:01:17;;;;;;;17.65;9.40;;;;;;;7.66;58.04;100687.28;4828364;28;101608;-86
2021/10/26 01:03:43;;;;;;;14.60;9.15;;;;;;;7.58;58.33;100683.91;4845179;28;99999;-87
2021/10/26 01:06:09;;;;;;;14.15;8.63;;;;;;;7.52;58.60;100691.84;4854875;28;96689;-85
2021/10/26 01:08:35;;;;;;;11.70;8.73;;;;;;;7.46;58.82;100690.19;4853801;28;96866;-87
2021/10/26 01:11:01;;;;;;;13.88;8.85;;;;;;;7.49;58.77;100689.28;4875920;28;98347;-87
2021/10/26 01:13:27;;;;;;;12.63;8.50;;;;;;;7.46;58.70;100686.72;4857415;28;100996;-87
2021/10/26 01:15:56;;;;;;;14.63;9.90;;;;;;;7.38;58.93;100679.00;4843464;28;97244;-86
2021/10/26 01:18:27;;;;;;;12.52;8.77;;;;;;;7.33;58.88;100675.63;4844568;28;97479;-86
2021/10/26 01:20:53;;;;;;;18.30;8.43;;;;;;;7.31;59.43;100677.38;4857189;28;101326;-87
2021/10/26 01:23:21;;;;;;;15.75;8.63;;;;;;;7.32;59.44;100689.53;4861430;28;99615;-86
2021/10/26 01:25:48;;;;;;;12.35;9.07;;;;;;;7.28;59.77;100689.63;4848776;28;96617;-87
2021/10/26 01:28:14;;;;;;;12.32;8.68;;;;;;;7.26;59.94;100687.03;4846290;28;98226;-85
2021/10/26 01:30:39;;;;;;;20.58;8.60;;;;;;;7.23;59.65;100679.22;4860348;28;101406;-87
2021/10/26 01:33:41;;;;;;;13.70;7.82;;;;;;;7.32;59.75;100691.28;4841796;28;97850;-87
2021/10/26 01:36:10;;;;;;;16.83;7.75;;;;;;;7.28;60.06;100689.63;4850714;28;99597;-83
2021/10/26 01:38:36;;;;;;;13.13;8.73;;;;;;;7.22;60.28;100693.19;4829086;28;98072;-86
2021/10/26 01:41:02;;;;;;;16.27;7.43;;;;;;;7.19;60.32;100682.78;4844889;28;100211;-87
2021/10/26 01:43:27;;;;;;;14.13;9.70;;;;;;;7.15;60.53;100689.78;4858251;28;101321;-87
2021/10/26 01:45:54;;;;;;;16.23;8.73;;;;;;;7.13;61.06;100691.56;4854805;28;96681;-86
2021/10/26 01:48:30;;;;;;;11.50;8.55;;;;;;;7.03;61.29;100695.19;4874472;28;96908;-87
2021/10/26 01:50:58;;;;;;;11.98;7.95;;;;;;;7.11;61.38;100687.25;4852532;28;101230;-87
2021/10/26 01:53:26;;;;;;;15.27;8.25;;;;;;;7.07;61.38;100689.03;4875054;28;101583;-87
2021/10/26 01:55:52;;;;;;;13.45;8.75;;;;;;;7.01;61.70;100684.78;4840923;28;96764;-86
2021/10/26 01:58:18;;;;;;;11.75;9.25;;;;;;;7.05;60.93;100687.34;4870966;28;97250;-86
2021/10/26 02:01:02;;;;;;;13.70;8.55;;;;;;;7.10;61.09;100686.38;4844929;28;97024;-86
2021/10/26 02:03:28;;;;;;;11.70;9.38;;;;;;;7.06;60.90;100684.69;4858451;28;100980;-87
2021/10/26 02:05:53;;;;;;;14.70;8.43;;;;;;;7.00;61.25;100675.19;4859977;28;98252;-87
2021/10/26 02:08:19;;;;;;;13.25;9.00;;;;;;;7.07;61.08;100680.31;4827054;28;96950;-86
2021/10/26 02:10:45;;;;;;;15.27;8.80;;;;;;;6.94;61.97;100684.88;4875342;28;100562;-86
2021/10/26 02:13:10;;;;;;;15.05;8.48;;;;;;;6.88;61.61;100680.59;4856882;28;101480;-82
2021/10/26 02:15:36;;;;;;;9.02;8.13;;;;;;;6.86;61.71;100686.69;4848489;28;96721;-87
2021/10/26 02:18:02;;;;;;;11.55;8.52;;;;;;;6.77;62.00;100674.63;4850698;28;96949;-87
2021/10/26 02:20:28;;;;;;;12.02;8.65;;;;;;;6.82;62.21;100679.81;4831632;28;101835;-86
2021/10/26 02:22:54;;;;;;;10.77;7.78;;;;;;;6.88;61.74;100695.38;4874849;28;101285;-87
2021/10/26 02:25:22;;;;;;;13.23;8.55;;;;;;;6.89;61.57;100682.28;4847051;28;97371;-87
2021/10/26 02:27:48;;;;;;;9.40;8.13;;;;;;;6.83;61.88;100686.75;4844750;28;97067;-87
2021/10/26 02:30:14;;;;;;;12.02;8.35;;;;;;;6.81;62.12;100689.38;4858518;28;101403;-83
2021/10/26 02:32:41;;;;;;;12.02;8.40;;;;;;;6.74;62.42;100682.50;4859605;28;100695;-84
2021/10/26 02:35:07;;;;;;;12.68;8.48;;;;;;;6.69;62.28;100679.97;4871722;28;97028;-87
2021/10/26 02:37:32;;;;;;;14.73;9.48;;;;;;;6.71;62.23;100678.19;4843092;28;97285;-87
2021/10/26 02:39:58;;;;;;;12.35;8.95;;;;;;;6.70;62.08;100675.59;4859203;28;97941;-87
2021/10/26 02:42:24;;;;;;;10.85;8.45;;;;;;;6.63;62.64;100694.81;4843036;28;101718;-86
2021/10/26 02:44:55;;;;;;;13.77;8.52;;;;;;;6.68;62.24;100680.84;4852631;28;97375;-86
2021/10/26 02:47:21;;;;;;;11.45;9.52;;;;;;;6.67;62.02;100686.09;4853562;28;96913;-85
2021/10/26 02:49:48;;;;;;;11.02;8.52;;;;;;;6.64;62.56;100684.38;4851352;28;101377;-87
2021/10/26 02:52:14;;;;;;;13.80;9.25;;;;;;;6.50;62.85;100688.88;4858628;28;101209;-83
2021/10/26 02:54:40;;;;;;;13.33;8.90;;;;;;;6.50;62.57;100689.75;4824949;29;98583;-87
2021/10/26 02:57:06;;;;;;;13.75;8.95;;;;;;;6.54;62.75;100701.88;4846150;28;97329;-87
2021/10/26 02:59:31;;;;;;;19.93;8.90;;;;;;;6.50;62.58;100683.66;4846756;28;101702;-87
2021/10/26 03:01:58;;;;;;;16.52;8.65;;;;;;;6.32;63.18;100677.78;4861601;28;100898;-87
2021/10/26 03:04:25;;;;;;;16.83;8.57;;;;;;;6.34;63.36;100685.56;4845218;28;96664;-87
2021/10/26 03:06:51;;;;;;;17.95;8.77;;;;;;;6.28;63.20;100675.22;4846192;28;97110;-86
2021/10/26 03:09:19;;;;;;;16.23;9.52;;;;;;;6.30;63.51;100681.28;4871882;28;101511;-85
2021/10/26 03:11:45;;;;;;;14.85;9.13;;;;;;;6.19;63.54;100684.00;4856986;28;101422;-85
2021/10/26 03:14:11;;;;;;;14.40;9.40;;;;;;;6.24;63.47;100690.03;4858273;28;97140;-83
2021/10/26 03:16:37;;;;;;;13.00;9.07;;;;;;;6.21;63.68;100689.19;4854625;28;96968;-88
2021/10/26 03:19:04;;;;;;;19.87;10.57;;;;;;;6.23;63.47;100690.06;4847633;28;102480;-88
2021/10/26 03:21:35;;;;;;;16.52;9.55;;;;;;;6.18;63.32;100689.22;4847435;28;98713;-88
2021/10/26 03:24:00;;;;;;;15.77;10.02;;;;;;;6.20;63.25;100692.69;4848657;28;97344;-88
2021/10/26 03:26:27;;;;;;;15.80;10.07;;;;;;;6.07;64.06;100692.78;4844025;28;96983;-88
2021/10/26 03:28:53;;;;;;;14.85;10.48;;;;;;;6.12;63.36;100683.19;4842931;28;101325;-87
2021/10/26 03:31:19;;;;;;;15.17;9.77;;;;;;;6.07;63.29;100665.88;4870651;28;99923;-87
2021/10/26 03:34:03;;;;;;;12.48;9.38;;;;;;;6.09;63.49;100682.38;4861243;28;96813;-88
2021/10/26 03:36:29;;;;;;;16.77;10.05;;;;;;;6.03;64.07;100679.81;4842634;28;97068;-88
2021/10/26 03:38:55;;;;;;;15.13;9.50;;;;;;;6.08;63.75;100680.66;4855300;28;101437;-88
2021/10/26 03:41:21;;;;;;;20.10;10.02;;;;;;;5.97;64.07;100691.16;4850014;28;101181;-85
2021/10/26 03:43:47;;;;;;;20.70;10.40;;;;;;;6.04;63.93;100692.81;4835955;28;97105;-88
2021/10/26 03:46:15;;;;;;;17.52;10.25;;;;;;;6.05;63.59;100689.38;4852264;28;97335;-83
2021/10/26 03:48:41;;;;;;;18.77;11.23;;;;;;;6.08;63.84;100691.94;4842042;28;101957;-87
2021/10/26 03:51:06;;;;;;;16.02;10.85;;;;;;;6.00;64.32;100682.47;4866190;28;100657;-88
2021/10/26 03:53:33;;;;;;;18.15;9.90;;;;;;;5.97;64.82;100677.28;4842349;28;96756;-88
2021/10/26 03:55:59;;;;;;;15.07;9.95;;;;;;;5.93;64.65;100683.34;4849521;28;97294;-88
2021/10/26 03:58:24;;;;;;;18.13;10.83;;;;;;;5.85;64.92;100679.09;4873371;28;101694;-88
2021/10/26 04:00:53;;;;;;;19.27;8.80;;;;;;;5.96;64.51;100691.16;4858064;28;101760;-87
2021/10/26 04:03:31;;;;;;;26.77;9.40;;;;;;;5.90;64.98;100692.94;4885931;28;97343;-87
2021/10/26 04:10:58;;;;;;;20.63;9.52;;;;;;;5.98;64.41;100711.13;4857194;28;101744;-88
2021/10/26 04:13:25;;;;;;;22.80;8.77;;;;;;;6.03;64.16;100706.75;4873263;28;97230;-88
2021/10/26 04:15:55;;;;;;;20.50;9.47;;;;;;;6.00;64.23;100709.38;4843385;28;97287;-87
2021/10/26 04:18:23;;;;;;;26.13;9.77;;;;;;;5.98;64.79;100702.47;4857943;28;100461;-87
2021/10/26 04:20:49;;;;;;;36.97;11.30;;;;;;;5.85;64.84;100689.50;4843064;28;101379;-87
2021/10/26 04:23:14;;;;;;;25.37;10.87;;;;;;;5.79;64.96;100668.72;4857010;28;96757;-83
2021/10/26 04:25:42;;;;;;;33.50;11.23;;;;;;;5.89;65.27;100693.81;4828593;28;96962;-88
2021/10/26 04:28:08;;;;;;;38.53;12.87;;;;;;;5.90;64.81;100679.03;4829043;28;101243;-88
2021/10/26 04:30:34;;;;;;;37.93;13.23;;;;;;;5.92;64.90;100692.91;4856646;28;99845;-88
2021/10/26 04:33:02;;;;;;;22.53;11.43;;;;;;;5.94;64.75;100687.75;4861207;28;96919;-87
2021/10/26 04:35:30;;;;;;;28.80;11.97;;;;;;;5.90;64.93;100697.25;4829829;28;97195;-88
2021/10/26 04:37:57;;;;;;;38.17;13.53;;;;;;;5.85;64.83;100692.13;4832015;28;98190;-88
2021/10/26 04:40:23;;;;;;;29.88;12.23;;;;;;;5.88;64.78;100694.69;4858463;28;100113;-88
2021/10/26 04:42:48;;;;;;;30.37;14.00;;;;;;;5.94;64.69;100688.59;4859661;28;97713;-88
2021/10/26 04:45:14;;;;;;;37.85;14.35;;;;;;;5.98;64.69;100687.69;4871605;28;97709;-84
2021/10/26 04:47:44;;;;;;;32.60;12.87;;;;;;;5.90;64.49;100681.63;4844405;28;101662;-87
2021/10/26 04:50:10;;;;;;;29.43;12.33;;;;;;;5.88;65.01;100683.41;4860879;28;100339;-85
2021/10/26 04:52:36;;;;;;;24.83;11.40;;;;;;;5.93;65.25;100685.97;4852197;28;96901;-88
2021/10/26 04:55:02;;;;;;;30.47;12.10;;;;;;;5.83;65.22;100678.22;4861195;28;96853;-88
2021/10/26 04:57:28;;;;;;;26.88;13.45;;;;;;;5.78;65.83;100668.72;4844484;28;101697;-88
2021/10/26 05:00:30;;;;;;;31.67;15.27;;;;;;;5.84;65.08;100687.75;4854970;28;99218;-88
2021/10/26 05:02:56;;;;;;;31.37;15.47;;;;;;;5.74;65.49;100677.47;4845866;28;96790;-88
2021/10/26 05:05:22;;;;;;;37.30;16.48;;;;;;;5.93;65.01;100693.78;4856472;28;96851;-87
2021/10/26 05:07:47;;;;;;;44.33;18.43;;;;;;;5.84;64.99;100687.75;4864830;28;100058;-87
2021/10/26 05:10:13;;;;;;;27.93;14.63;;;;;;;6.17;64.92;100692.69;4880541;28;101387;-87
2021/10/26 05:12:41;;;;;;;27.00;13.33;;;;;;;6.11;64.86;100685.84;4872736;28;96865;-87
2021/10/26 05:15:07;;;;;;;40.78;16.52;;;;;;;6.07;64.93;100665.88;4874036;28;97119;-88
2021/10/26 05:17:45;;;;;;;46.47;18.37;;;;;;;5.91;65.52;100667.75;4876174;28;98260;-86
2021/10/26 05:20:29;;;;;;;41.43;15.73;;;;;;;5.88;65.55;100671.25;4847717;28;97589;-87
2021/10/26 05:23:30;;;;;;;31.20;15.50;;;;;;;5.99;64.87;100668.56;4806856;29;97065;-87
2021/10/26 05:26:15;;;;;;;40.70;17.27;;;;;;;6.00;65.28;100675.50;4859185;28;97503;-86
2021/10/26 05:28:42;;;;;;;23.73;13.80;;;;;;;6.01;65.13;100666.78;4844756;28;100618;-87
2021/10/26 05:31:08;;;;;;;35.60;17.23;;;;;;;5.91;65.51;100665.16;4859907;28;101088;-86
2021/10/26 05:33:36;;;;;;;29.07;17.90;;;;;;;5.94;66.04;100669.50;4860292;28;97948;-87
2021/10/26 05:36:03;;;;;;;35.87;17.27;;;;;;;5.93;66.08;100676.41;4873559;28;97065;-87
2021/10/26 05:38:28;;;;;;;27.13;17.00;;;;;;;5.98;65.75;100679.84;4843789;28;100293;-86
2021/10/26 05:40:54;;;;;;;27.83;16.20;;;;;;;6.05;65.92;100665.91;4827086;29;99873;-87
2021/10/26 05:43:20;;;;;;;31.60;15.70;;;;;;;6.12;65.76;100671.91;4874174;28;96807;-83
2021/10/26 05:45:45;;;;;;;29.73;16.45;;;;;;;6.28;65.18;100670.00;4843391;29;97096;-85
2021/10/26 05:48:14;;;;;;;40.80;17.03;;;;;;;6.22;65.66;100664.84;4859923;28;101449;-87
2021/10/26 05:50:40;;;;;;;30.67;14.82;;;;;;;6.42;64.54;100672.47;4858773;28;100385;-88
2021/10/26 05:53:05;;;;;;;35.67;17.20;;;;;;;6.36;64.78;100678.59;4859594;28;97463;-87
2021/10/26 05:55:31;;;;;;;47.33;20.07;;;;;;;6.30;65.19;100682.13;4845130;28;96910;-84
2021/10/26 05:57:56;;;;;;;44.80;19.30;;;;;;;6.35;64.91;100682.09;4866482;28;98539;-87
2021/10/26 06:00:25;;;;;;;62.50;22.52;;;;;;;6.35;64.93;100697.75;4874352;28;101199;-86
2021/10/26 06:02:51;;;;;;;66.67;22.57;;;;;;;6.26;65.47;100697.84;4840576;29;97465;-89
2021/10/26 06:05:17;;;;;;;84.87;22.53;;;;;;;6.44;65.08;100692.44;4825150;29;97262;-90
2021/10/26 06:07:43;;;;;;;34.70;15.73;;;;;;;6.66;64.03;100680.00;4840321;29;101811;-90
2021/10/26 06:10:10;;;;;;;80.53;23.17;;;;;;;6.52;64.81;100689.75;4840814;29;101662;-88
2021/10/26 06:12:44;;;;;;;58.72;19.33;;;;;;;6.53;65.28;100691.47;4854550;28;96920;-91
2021/10/26 06:15:11;;;;;;;57.63;20.20;;;;;;;6.57;65.43;100688.81;4856247;28;97369;-90
2021/10/26 06:17:36;;;;;;;48.72;19.38;;;;;;;6.58;65.56;100692.28;4871904;28;101376;-90
2021/10/26 06:20:02;;;;;;;45.67;19.23;;;;;;;6.65;64.95;100667.81;4840227;29;97225;-89
2021/10/26 06:22:28;;;;;;;31.40;16.80;;;;;;;6.74;65.23;100685.97;4855722;29;97400;-90
2021/10/26 06:24:54;;;;;;;40.07;17.60;;;;;;;6.67;65.53;100692.16;4840799;29;96960;-90
2021/10/26 06:27:20;;;;;;;48.58;17.35;;;;;;;6.59;65.51;100691.38;4839878;29;100310;-90
2021/10/26 06:29:46;;;;;;;49.92;17.00;;;;;;;6.81;65.17;100705.03;4839943;29;100312;-89
2021/10/26 06:32:27;;;;;;;47.65;17.65;;;;;;;6.81;65.49;100699.81;4838079;29;97326;-89
2021/10/26 06:34:54;;;;;;;44.05;16.58;;;;;;;6.86;65.51;100708.44;4839930;29;97265;-90
2021/10/26 06:37:21;;;;;;;38.95;17.13;;;;;;;6.88;65.50;100709.28;4855271;29;101218;-85
2021/10/26 06:39:47;;;;;;;44.70;17.23;;;;;;;6.94;64.75;100710.97;4853633;28;98438;-90
2021/10/26 06:42:12;;;;;;;36.30;16.98;;;;;;;7.07;64.87;100717.75;4841053;29;96850;-90
2021/10/26 06:44:56;;;;;;;27.35;14.75;;;;;;;7.12;63.67;100708.09;4855248;29;97479;-89
2021/10/26 06:47:40;;;;;;;33.50;16.08;;;;;;;7.26;63.51;100714.00;4855793;29;96985;-89
2021/10/26 06:50:34;;;;;;;29.50;16.90;;;;;;;7.37;63.40;100707.75;4852378;28;98596;-89
2021/10/26 06:53:19;;;;;;;30.48;15.95;;;;;;;7.51;63.35;100713.66;4839045;29;97472;-85
2021/10/26 06:56:14;;;;;;;29.00;16.73;;;;;;;8.01;62.09;100718.94;4826656;29;96923;-89
2021/10/26 06:58:58;;;;;;;34.50;17.95;;;;;;;8.64;60.89;100715.19;4855301;28;97059;-89
2021/10/26 07:01:42;;;;;;;71.20;36.50;;;;;;;9.93;56.17;100724.53;4839147;29;98631;-88
2021/10/26 07:04:14;;;;;;;52.97;29.40;;;;;;;9.97;55.87;100718.28;4840205;29;97144;-87
2021/10/26 07:06:57;;;;;;;50.50;26.10;;;;;;;9.92;56.76;100714.09;4855161;29;96811;-87
2021/10/26 07:09:41;;;;;;;39.28;20.25;;;;;;;10.33;56.31;100718.28;4850602;28;97339;-87
2021/10/26 07:12:13;;;;;;;44.92;20.00;;;;;;;10.69;55.59;100728.69;4840501;29;101927;-84
2021/10/26 07:14:39;;;;;;;36.08;19.17;;;;;;;10.53;56.16;100727.38;4853783;29;97223;-86
2021/10/26 07:17:06;;;;;;;28.58;18.95;;;;;;;10.76;55.38;100731.97;4839662;29;96935;-89
2021/10/26 07:19:32;;;;;;;29.80;17.50;;;;;;;10.99;54.33;100726.94;4853896;29;101412;-87
2021/10/26 07:22:22;;;;;;;31.88;17.27;;;;;;;11.12;54.42;100734.47;4845346;29;97387;-80
2021/10/26 07:25:26;;;;;;;27.52;16.00;;;;;;;11.26;53.53;100732.28;4830268;29;97042;-84
2021/10/26 07:27:58;;;;;;;25.90;16.20;;;;;;;11.22;53.70;100733.28;4808878;29;97023;-86
2021/10/26 07:30:27;;;;;;;27.58;16.67;;;;;;;11.24;53.76;100734.94;4840736;28;100966;-85
2021/10/26 07:32:53;;;;;;;26.90;15.57;;;;;;;11.29;52.97;100727.78;4857486;28;98256;-85
2021/10/26 07:35:19;;;;;;;28.63;15.73;;;;;;;11.45;52.57;100716.81;4838736;29;97229;-84
2021/10/26 07:37:47;;;;;;;21.98;14.60;;;;;;;11.69;51.93;100730.94;4838546;29;96939;-85
2021/10/26 07:40:19;;;;;;;24.80;13.23;;;;;;;11.91;51.45;100721.47;4857129;28;101816;-84
2021/10/26 07:43:07;;;;;;;25.95;13.10;;;;;;;11.80;51.23;100718.28;4845640;29;97832;-84
2021/10/26 07:46:06;;;;;;;19.10;13.00;;;;;;;11.42;52.74;100730.03;4854014;29;96908;-86
2021/10/26 07:48:32;;;;;;;22.10;12.27;;;;;;;11.32;52.55;100732.97;4852953;29;96901;-85
2021/10/26 07:50:59;;;;;;;18.05;11.20;;;;;;;11.22;52.82;100726.25;4864252;28;101283;-84
2021/10/26 07:53:27;;;;;;;17.63;11.65;;;;;;;11.18;53.35;100722.00;4834903;29;101539;-85
2021/10/26 07:56:01;;;;;;;20.95;11.38;;;;;;;11.34;52.85;100727.63;4823338;29;97425;-86
2021/10/26 07:58:27;;;;;;;17.17;12.18;;;;;;;11.57;52.47;100730.41;4837493;29;96800;-86
2021/10/26 08:00:54;;;;;;;17.95;12.10;;;;;;;11.78;52.39;100728.88;4839383;29;100338;-85
2021/10/26 08:03:50;;;;;;;15.82;10.80;;;;;;;12.15;51.25;100716.28;4795837;28;97792;-86
2021/10/26 08:06:16;;;;;;;17.85;11.23;;;;;;;12.23;51.21;100723.00;4863884;28;97466;-85
2021/10/26 08:08:42;;;;;;;29.38;16.40;;;;;;;13.04;49.61;100719.22;4839396;28;97335;-86
2021/10/26 08:11:08;;;;;;;21.92;13.50;;;;;;;14.06;47.48;100721.34;4889595;28;102615;-87
2021/10/26 08:13:35;;;;;;;25.35;14.18;;;;;;;14.59;46.03;100710.25;4844920;29;98393;-85
2021/10/26 08:16:02;;;;;;;21.35;11.25;;;;;;;13.97;47.04;100711.19;4867489;28;98544;-85
2021/10/26 08:18:28;;;;;;;17.33;10.30;;;;;;;13.75;47.29;100713.81;4840674;29;97571;-85
2021/10/26 08:20:54;;;;;;;13.88;10.75;;;;;;;13.65;48.15;100715.13;4851735;28;101201;-83
2021/10/26 08:23:21;;;;;;;17.42;10.32;;;;;;;13.69;48.22;100714.94;4839526;29;101514;-82
2021/10/26 08:25:53;;;;;;;17.70;10.73;;;;;;;13.57;48.47;100715.44;4840483;28;97445;-84
2021/10/26 08:28:20;;;;;;;16.02;10.30;;;;;;;13.82;48.13;100708.25;4852350;28;97136;-82
2021/10/26 08:30:55;;;;;;;14.95;10.40;;;;;;;13.69;48.27;100716.72;4837125;29;101869;-83
2021/10/26 08:35:57;;;;;;;21.45;13.68;;;;;;;13.26;49.68;100721.91;4854116;28;97717;-84
2021/10/26 08:38:23;;;;;;;20.27;12.10;;;;;;;13.16;50.10;100712.63;4844688;28;97293;-83
2021/10/26 08:41:02;;;;;;;24.67;12.60;;;;;;;13.29;49.33;100710.38;4852238;28;101419;-83
2021/10/26 08:43:28;;;;;;;23.85;12.73;;;;;;;13.78;48.97;100714.56;4854017;28;101887;-84
2021/10/26 08:45:55;;;;;;;17.88;10.68;;;;;;;14.67;47.20;100712.56;4848750;28;97478;-84
2021/10/26 08:48:24;;;;;;;16.10;11.82;;;;;;;16.01;44.53;100709.75;4850887;28;97122;-84
2021/10/26 08:50:55;;;;;;;16.67;11.30;;;;;;;16.12;44.09;100718.03;4851451;28;98317;-84
2021/10/26 08:53:24;;;;;;;20.80;11.63;;;;;;;15.89;44.22;100713.03;4863307;28;102086;-84
2021/10/26 08:56:13;;;;;;;24.17;11.70;;;;;;;17.09;42.39;100715.59;4850287;28;97184;-84
2021/10/26 08:58:57;;;;;;;15.95;10.98;;;;;;;15.77;44.51;100714.50;4850434;28;98083;-85
2021/10/26 09:01:24;;;;;;;16.13;10.95;;;;;;;15.45;45.07;100716.03;4855777;28;100667;-85
2021/10/26 09:04:11;;;;;;;19.38;11.07;;;;;;;15.42;45.28;100702.91;4855619;28;100828;-85
2021/10/26 09:06:51;;;;;;;19.33;11.63;;;;;;;16.57;43.28;100703.31;4844889;29;97451;-84
2021/10/26 09:09:24;;;;;;;23.00;11.68;;;;;;;18.87;39.25;100702.56;4852653;29;96995;-84
2021/10/26 09:18:24;;;;;;;15.25;10.32;;;;;;;19.62;37.31;100695.94;4858708;28;97251;-83
2021/10/26 09:20:53;;;;;;;19.27;10.63;;;;;;;18.67;38.72;100685.16;4857134;28;96927;-84
2021/10/26 09:23:28;;;;;;;14.55;9.52;;;;;;;18.45;39.69;100694.44;4824701;29;100957;-83
2021/10/26 09:25:57;;;;;;;12.40;9.88;;;;;;;19.42;38.05;100691.91;4843339;29;99927;-84
2021/10/26 09:28:23;;;;;;;13.43;9.38;;;;;;;20.46;36.68;100689.41;4840240;29;96971;-83
2021/10/26 09:30:59;;;;;;;13.23;9.35;;;;;;;21.14;35.31;100695.31;4856867;29;97040;-85
2021/10/26 09:33:35;;;;;;;14.55;10.10;;;;;;;20.88;35.43;100686.50;4854402;28;102056;-83
2021/10/26 09:36:34;;;;;;;13.98;9.07;;;;;;;19.86;36.93;100677.47;4855007;28;98051;-85
2021/10/26 09:39:02;;;;;;;15.95;9.30;;;;;;;20.21;36.32;100692.88;4851884;28;97125;-84
2021/10/26 09:41:28;;;;;;;16.25;9.32;;;;;;;20.54;36.28;100678.25;4854487;28;97010;-84
2021/10/26 09:44:12;;;;;;;12.18;9.48;;;;;;;20.19;37.13;100692.16;4839565;29;98722;-85
2021/10/26 09:46:40;;;;;;;15.80;9.75;;;;;;;20.30;37.08;100707.41;4838216;29;101411;-84
2021/10/26 09:49:22;;;;;;;15.00;8.93;;;;;;;20.47;36.72;100688.44;4841080;29;96744;-84
2021/10/26 09:51:51;;;;;;;13.50;9.63;;;;;;;20.92;36.30;100694.19;4869417;28;96801;-84
2021/10/26 09:54:20;;;;;;;15.75;8.70;;;;;;;20.80;36.14;100695.06;4840924;29;98008;-81
2021/10/26 09:57:05;;;;;;;14.15;8.40;;;;;;;20.42;36.18;100693.25;4850070;29;101024;-86
2021/10/26 09:59:35;;;;;;;11.68;8.55;;;;;;;20.07;36.42;100695.63;4852494;28;97299;-91
2021/10/26 10:02:01;;;;;;;10.38;8.10;;;;;;;19.24;38.13;100698.44;4840030;29;97295;-87
2021/10/26 10:04:31;;;;;;;12.85;8.60;;;;;;;18.77;39.17;100691.66;4837781;29;100063;-82
2021/10/26 10:06:58;;;;;;;14.43;7.87;;;;;;;18.61;39.70;100701.47;4840043;29;101483;-84
2021/10/26 10:09:24;;;;;;;14.90;9.00;;;;;;;18.24;40.32;100707.25;4854974;28;97259;-82
2021/10/26 10:12:04;;;;;;;16.20;8.10;;;;;;;18.10;41.22;100704.56;4855089;28;96897;-82
2021/10/26 10:14:30;;;;;;;10.52;8.93;;;;;;;17.97;41.00;100692.94;4840396;29;101948;-82
2021/10/26 10:16:55;;;;;;;12.60;8.63;;;;;;;17.78;41.30;100703.78;4839181;28;101390;-82
2021/10/26 10:19:22;;;;;;;14.02;8.60;;;;;;;17.65;42.10;100707.09;4814875;29;97417;-81
2021/10/26 10:21:50;;;;;;;19.63;9.40;;;;;;;17.57;42.13;100697.84;4866571;28;97125;-82
2021/10/26 10:24:19;;;;;;;13.98;8.90;;;;;;;17.53;42.24;100706.94;4832121;29;97447;-81
2021/10/26 10:26:50;;;;;;;11.43;8.10;;;;;;;17.29;42.29;100683.50;4838825;29;101405;-81
2021/10/26 10:29:17;;;;;;;18.00;9.10;;;;;;;17.23;43.24;100696.28;4872554;28;97158;-81
2021/10/26 10:31:44;;;;;;;10.80;8.50;;;;;;;17.23;43.10;100694.47;4855359;29;97730;-81
2021/10/26 10:34:10;;;;;;;14.27;8.68;;;;;;;17.42;42.73;100687.19;4844577;28;101434;-81
2021/10/26 10:36:40;;;;;;;17.00;9.05;;;;;;;17.67;41.58;100666.34;4848612;29;101285;-82
2021/10/26 10:39:07;;;;;;;13.60;8.63;;;;;;;17.41;42.68;100680.16;4828341;29;98120;-82
2021/10/26 10:41:38;;;;;;;14.20;8.15;;;;;;;17.46;42.05;100679.91;4856920;28;97186;-82
2021/10/26 10:44:21;;;;;;;12.30;7.60;;;;;;;17.16;42.25;100680.69;4875163;28;101269;-81
2021/10/26 10:46:55;;;;;;;12.77;8.52;;;;;;;17.03;42.38;100684.13;4839453;29;97949;-81
2021/10/26 10:49:23;;;;;;;13.07;8.65;;;;;;;17.14;43.15;100687.03;4841977;29;97176;-82
2021/10/26 10:52:10;;;;;;;10.10;8.45;;;;;;;17.26;43.57;100688.16;4850486;28;98267;-81
2021/10/26 10:54:39;;;;;;;12.15;8.85;;;;;;;17.14;42.84;100682.56;4849496;29;98155;-81
2021/10/26 10:57:19;;;;;;;10.40;8.77;;;;;;;16.92;43.07;100685.53;4847071;29;101532;-81
2021/10/26 10:59:46;;;;;;;10.25;8.68;;;;;;;16.90;42.83;100684.78;4864231;28;96907;-81
2021/10/26 11:02:33;;;;;;;16.83;9.88;;;;;;;16.83;43.78;100674.59;4849377;29;97309;-81
2021/10/26 11:05:02;;;;;;;12.20;9.13;;;;;;;16.82;43.92;100673.75;4850718;29;98368;-83
2021/10/26 11:07:43;;;;;;;12.05;9.15;;;;;;;16.88;43.79;100677.84;4850929;29;101477;-82
2021/10/26 11:10:10;;;;;;;14.50;8.05;;;;;;;16.79;44.31;100678.38;4834852;29;97306;-81
2021/10/26 11:12:37;;;;;;;13.85;8.45;;;;;;;16.84;44.28;100666.56;4849186;29;97637;-81
2021/10/26 11:15:06;;;;;;;16.00;8.88;;;;;;;16.91;44.16;100667.94;4850377;29;101143;-81
2021/10/26 11:17:32;;;;;;;13.10;8.65;;;;;;;16.90;44.59;100663.56;4832991;29;98369;-81
2021/10/26 11:20:30;;;;;;;13.82;8.88;;;;;;;16.86;44.10;100663.81;4836111;29;98403;-81
2021/10/26 11:23:01;;;;;;;14.50;8.80;;;;;;;16.71;44.07;100671.63;4831942;29;96926;-81
2021/10/26 11:25:27;;;;;;;11.40;8.73;;;;;;;16.67;44.53;100666.59;4849444;29;98055;-81
2021/10/26 11:27:54;;;;;;;14.35;9.38;;;;;;;16.49;44.46;100657.81;4850393;29;100186;-80
2021/10/26 11:30:29;;;;;;;15.55;10.52;;;;;;;16.49;44.81;100671.06;4867318;28;96837;-81
2021/10/26 11:33:09;;;;;;;14.35;8.85;;;;;;;16.45;44.29;100661.56;4850629;29;97357;-81
2021/10/26 11:35:48;;;;;;;13.75;9.13;;;;;;;16.47;44.29;100660.56;4836150;29;97767;-81
2021/10/26 11:38:20;;;;;;;14.27;8.68;;;;;;;16.53;44.49;100660.22;4848981;28;101424;-81
2021/10/26 11:40:49;;;;;;;12.32;9.40;;;;;;;16.52;44.47;100670.88;4850276;28;97464;-81
2021/10/26 11:43:16;;;;;;;13.77;8.30;;;;;;;16.49;44.57;100671.06;4853607;28;97594;-82